Time;durP1;ratioP1;P1;durP2;ratioP2;P2;SDS_P1;SDS_P2;PMS_P1;PMS_P2;Temp;Humidity;BMP_temperature;BMP_pressure;BME280_temperature;BME280_humidity;BME280_pressure;Samples;Min_cycle;Max_cycle;Signal;HPM_P1;HPM_P2
2021/08/25 00:01:38;;;;;;;8.68;5.63;;;21.60;53.70;;;;;;5056270;28;20049;-60
2021/08/25 00:04:03;;;;;;;8.85;5.65;;;21.60;53.50;;;;;;5056032;28;20083;-60
2021/08/25 00:06:29;;;;;;;7.22;5.28;;;21.60;53.40;;;;;;5055639;28;20014;-59
2021/08/25 00:08:57;;;;;;;12.43;7.25;;;21.60;53.20;;;;;;5055617;28;20025;-60
2021/08/25 00:11:23;;;;;;;8.38;6.05;;;21.60;53.40;;;;;;5055517;28;20029;-60
2021/08/25 00:13:49;;;;;;;6.93;5.28;;;21.60;53.40;;;;;;5055619;28;20104;-59
2021/08/25 00:16:14;;;;;;;7.85;5.68;;;21.60;53.20;;;;;;5055393;28;20075;-60
2021/08/25 00:18:40;;;;;;;10.43;6.32;;;21.60;53.30;;;;;;5055585;28;20081;-60
2021/08/25 00:21:06;;;;;;;8.70;6.18;;;21.60;53.50;;;;;;5055571;28;20067;-60
2021/08/25 00:23:31;;;;;;;8.88;6.13;;;21.70;53.60;;;;;;5055290;28;20496;-60
2021/08/25 00:25:58;;;;;;;8.93;6.43;;;21.70;54.10;;;;;;5052017;28;20083;-60
2021/08/25 00:28:24;;;;;;;6.75;5.60;;;21.70;54.10;;;;;;5035614;28;20029;-60
2021/08/25 00:30:51;;;;;;;7.80;5.80;;;21.60;54.10;;;;;;5034989;28;20525;-59
2021/08/25 00:33:16;;;;;;;7.40;5.45;;;21.70;54.50;;;;;;5035473;28;20037;-60
2021/08/25 00:35:42;;;;;;;7.47;5.75;;;21.70;54.50;;;;;;5034775;28;20029;-60
2021/08/25 00:38:08;;;;;;;9.45;6.03;;;21.70;54.90;;;;;;5034880;28;20033;-60
2021/08/25 00:40:34;;;;;;;9.05;5.28;;;21.60;55.10;;;;;;5035063;28;20048;-59
2021/08/25 00:43:07;;;;;;;10.80;6.38;;;21.60;55.60;;;;;;5035733;28;20424;-59
2021/08/25 00:45:42;;;;;;;8.70;5.82;;;21.60;55.60;;;;;;5035339;28;20033;-59
2021/08/25 00:48:09;;;;;;;7.95;5.75;;;21.60;55.60;;;;;;5035943;28;20056;-60
2021/08/25 00:50:37;;;;;;;8.52;5.60;;;21.50;55.60;;;;;;5035699;28;20104;-59
2021/08/25 00:53:06;;;;;;;8.68;6.07;;;21.50;55.80;;;;;;5035532;28;20030;-59
2021/08/25 00:55:39;;;;;;;8.27;5.70;;;21.50;55.80;;;;;;5036955;28;20057;-60
2021/08/25 00:58:06;;;;;;;9.52;5.97;;;21.50;55.90;;;;;;5055019;28;20381;-60
2021/08/25 01:00:33;;;;;;;8.27;5.93;;;21.50;56.10;;;;;;5056844;28;20681;-60
2021/08/25 01:03:13;;;;;;;7.85;5.88;;;21.50;56.40;;;;;;5058647;28;20024;-60
2021/08/25 01:05:42;;;;;;;8.18;5.53;;;21.50;56.60;;;;;;5058506;28;20033;-59
2021/08/25 01:08:12;;;;;;;8.25;5.60;;;21.50;55.80;;;;;;5058772;28;20064;-60
2021/08/25 01:10:38;;;;;;;8.07;6.00;;;21.50;55.40;;;;;;5049677;28;20025;-60
2021/08/25 01:13:06;;;;;;;8.75;5.20;;;21.50;55.20;;;;;;5038244;28;20172;-60
2021/08/25 01:15:42;;;;;;;8.50;6.10;;;21.50;55.00;;;;;;5038553;28;20029;-60
2021/08/25 01:18:14;;;;;;;7.47;5.35;;;21.60;54.80;;;;;;5038523;28;20051;-59
2021/08/25 01:20:47;;;;;;;8.63;5.75;;;21.60;54.70;;;;;;5038230;28;20025;-60
2021/08/25 01:23:15;;;;;;;10.13;6.05;;;21.60;54.70;;;;;;5038057;28;20580;-59
2021/08/25 01:25:42;;;;;;;8.23;5.50;;;21.60;54.60;;;;;;5040319;28;20017;-58
2021/08/25 01:28:09;;;;;;;8.85;5.80;;;21.60;54.60;;;;;;5056888;28;20036;-59
2021/08/25 01:30:40;;;;;;;8.93;5.55;;;21.60;54.40;;;;;;5052316;28;20072;-60
2021/08/25 01:33:06;;;;;;;9.27;5.32;;;21.70;54.30;;;;;;5037997;28;20037;-60
2021/08/25 01:35:40;;;;;;;7.55;5.35;;;21.70;54.30;;;;;;5037904;28;20037;-59
2021/08/25 01:38:06;;;;;;;9.00;5.97;;;21.70;54.10;;;;;;5038539;28;20104;-59
2021/08/25 01:40:35;;;;;;;8.15;5.25;;;21.70;53.90;;;;;;5038214;28;20052;-59
2021/08/25 01:43:03;;;;;;;9.18;5.60;;;21.70;54.30;;;;;;5037888;28;20032;-59
2021/08/25 01:45:28;;;;;;;7.00;5.22;;;21.70;53.90;;;;;;5038417;28;20087;-59
2021/08/25 01:47:54;;;;;;;10.13;5.13;;;21.70;54.20;;;;;;5038018;28;20030;-60
2021/08/25 01:50:20;;;;;;;8.77;6.00;;;21.70;53.90;;;;;;5038121;28;20034;-59
2021/08/25 01:52:46;;;;;;;7.95;5.80;;;21.70;54.00;;;;;;5038062;28;20025;-60
2021/08/25 01:55:12;;;;;;;8.88;5.60;;;21.70;54.40;;;;;;5038946;28;20472;-60
2021/08/25 01:57:37;;;;;;;7.75;5.40;;;21.70;54.80;;;;;;5040971;28;20048;-59
2021/08/25 02:00:05;;;;;;;7.18;5.43;;;21.80;55.20;;;;;;5038706;28;20030;-60
2021/08/25 02:02:30;;;;;;;8.45;5.47;;;21.80;55.50;;;;;;5039054;28;20076;-60
2021/08/25 02:04:56;;;;;;;6.85;5.43;;;21.80;55.60;;;;;;5037848;28;20026;-60
2021/08/25 02:07:22;;;;;;;9.48;6.03;;;21.70;55.50;;;;;;5038117;28;20033;-60
2021/08/25 02:09:47;;;;;;;7.88;5.65;;;21.70;55.40;;;;;;5038317;28;20036;-60
2021/08/25 02:12:13;;;;;;;9.75;6.28;;;21.70;55.70;;;;;;5038193;28;20030;-60
2021/08/25 02:14:39;;;;;;;8.98;6.07;;;21.70;55.70;;;;;;5038516;28;20041;-60
2021/08/25 02:17:06;;;;;;;10.25;6.63;;;21.70;55.70;;;;;;5038052;28;20424;-60
2021/08/25 02:19:33;;;;;;;7.80;6.18;;;21.70;55.70;;;;;;5037407;28;20445;-59
2021/08/25 02:21:58;;;;;;;9.40;6.80;;;21.70;55.60;;;;;;5037525;28;20013;-59
2021/08/25 02:24:24;;;;;;;9.10;6.28;;;21.60;55.70;;;;;;5037265;28;20348;-60
2021/08/25 02:26:50;;;;;;;8.50;6.30;;;21.60;56.00;;;;;;5051568;28;20043;-59
2021/08/25 02:29:15;;;;;;;9.10;6.72;;;21.60;56.30;;;;;;5056652;28;20025;-60
2021/08/25 02:31:41;;;;;;;9.52;6.50;;;21.50;56.30;;;;;;5042085;28;20099;-60
2021/08/25 02:34:07;;;;;;;12.50;8.00;;;21.50;55.90;;;;;;5036823;28;20022;-60
2021/08/25 02:36:33;;;;;;;9.90;6.70;;;21.50;55.60;;;;;;5036774;28;20160;-60
2021/08/25 02:38:58;;;;;;;10.23;6.93;;;21.50;55.50;;;;;;5036162;28;20032;-60
2021/08/25 02:41:24;;;;;;;10.13;7.28;;;21.40;55.20;;;;;;5036038;28;20454;-60
2021/08/25 02:43:50;;;;;;;10.95;7.85;;;21.40;55.20;;;;;;5036596;28;20029;-60
2021/08/25 02:46:16;;;;;;;12.60;7.28;;;21.40;54.90;;;;;;5048938;28;20043;-59
2021/08/25 02:48:42;;;;;;;11.50;7.47;;;21.40;54.90;;;;;;5057170;28;20028;-60
2021/08/25 02:51:08;;;;;;;11.13;7.57;;;21.30;54.80;;;;;;5057168;28;20082;-60
2021/08/25 02:53:34;;;;;;;12.52;8.38;;;21.30;54.90;;;;;;5056960;28;20025;-59
2021/08/25 02:56:00;;;;;;;10.48;7.55;;;21.30;54.90;;;;;;5056696;28;20025;-60
2021/08/25 02:58:25;;;;;;;12.85;8.35;;;21.30;55.00;;;;;;5056272;28;20025;-59
2021/08/25 03:00:51;;;;;;;11.00;8.43;;;21.30;55.10;;;;;;5056984;28;20095;-60
2021/08/25 03:03:17;;;;;;;12.23;8.65;;;21.30;55.20;;;;;;5056426;28;20327;-60
2021/08/25 03:05:43;;;;;;;12.98;8.70;;;21.30;55.30;;;;;;5046694;28;20052;-60
2021/08/25 03:08:08;;;;;;;12.20;9.10;;;21.30;55.30;;;;;;5036835;28;20113;-59
2021/08/25 03:10:34;;;;;;;13.30;8.80;;;21.30;55.20;;;;;;5036669;28;20380;-60
2021/08/25 03:12:59;;;;;;;13.60;9.07;;;21.40;55.20;;;;;;5036666;28;20140;-58
2021/08/25 03:15:25;;;;;;;11.60;8.55;;;21.40;55.30;;;;;;5036903;28;20036;-60
2021/08/25 03:17:51;;;;;;;15.13;8.20;;;21.40;55.50;;;;;;5036358;28;20076;-60
2021/08/25 03:20:17;;;;;;;13.15;8.93;;;21.40;55.60;;;;;;5036548;28;20025;-59
2021/08/25 03:22:42;;;;;;;12.30;8.27;;;21.40;55.60;;;;;;5035888;28;20026;-60
2021/08/25 03:25:09;;;;;;;12.88;8.65;;;21.50;55.50;;;;;;5036322;28;20358;-60
2021/08/25 03:27:35;;;;;;;10.30;8.13;;;21.50;55.60;;;;;;5036663;28;20108;-60
2021/08/25 03:30:01;;;;;;;10.82;8.40;;;21.50;55.60;;;;;;5036242;28;20080;-60
2021/08/25 03:32:26;;;;;;;12.23;8.43;;;21.50;55.50;;;;;;5036439;28;20029;-60
2021/08/25 03:34:53;;;;;;;14.75;9.00;;;21.60;55.50;;;;;;5038708;28;20037;-60
2021/08/25 03:37:19;;;;;;;15.57;9.07;;;21.60;55.70;;;;;;5056279;28;20164;-60
2021/08/25 03:39:44;;;;;;;11.82;7.65;;;21.60;55.80;;;;;;5056140;28;20104;-60
2021/08/25 03:42:10;;;;;;;13.73;8.95;;;21.60;56.00;;;;;;5056418;28;20044;-60
2021/08/25 03:44:37;;;;;;;12.75;8.45;;;21.70;56.00;;;;;;5056132;28;20036;-60
2021/08/25 03:47:06;;;;;;;15.23;9.10;;;21.70;55.70;;;;;;5056314;28;20025;-60
2021/08/25 03:49:33;;;;;;;13.15;8.27;;;21.70;55.80;;;;;;5055959;28;20037;-60
2021/08/25 03:51:58;;;;;;;13.52;8.77;;;21.70;55.60;;;;;;5056456;28;20028;-59
2021/08/25 03:54:24;;;;;;;14.48;8.75;;;21.70;55.70;;;;;;5056862;28;20384;-60
2021/08/25 03:56:50;;;;;;;15.23;8.27;;;21.70;55.70;;;;;;5056835;28;20021;-59
2021/08/25 03:59:16;;;;;;;14.13;9.00;;;21.70;55.60;;;;;;5056899;28;20530;-59
2021/08/25 04:01:42;;;;;;;11.98;9.18;;;21.80;55.40;;;;;;5056372;28;20385;-60
2021/08/25 04:04:08;;;;;;;15.07;10.05;;;21.80;55.40;;;;;;5056377;28;20021;-60
2021/08/25 04:06:38;;;;;;;13.57;9.88;;;21.70;55.30;;;;;;5037182;28;20048;-60
2021/08/25 04:09:05;;;;;;;15.93;9.77;;;21.70;55.40;;;;;;5035454;28;20464;-59
2021/08/25 04:11:32;;;;;;;14.23;9.88;;;21.70;55.40;;;;;;5035717;28;20135;-60
2021/08/25 04:13:58;;;;;;;15.38;9.90;;;21.70;55.30;;;;;;5035569;28;20026;-60
2021/08/25 04:16:24;;;;;;;16.13;10.40;;;21.60;55.40;;;;;;5035375;28;20100;-60
2021/08/25 04:18:50;;;;;;;14.63;9.82;;;21.50;55.60;;;;;;5035124;28;20030;-60
2021/08/25 04:21:16;;;;;;;13.85;10.05;;;21.50;55.70;;;;;;5035227;28;20018;-60
2021/08/25 04:23:42;;;;;;;15.43;10.00;;;21.50;55.80;;;;;;5035283;28;20075;-60
2021/08/25 04:26:07;;;;;;;16.30;10.23;;;21.50;56.00;;;;;;5035279;28;20021;-60
2021/08/25 04:28:33;;;;;;;15.50;9.88;;;21.50;56.10;;;;;;5035537;28;20460;-60
2021/08/25 04:30:59;;;;;;;13.75;9.77;;;21.50;56.30;;;;;;5035436;28;20425;-59
2021/08/25 04:33:25;;;;;;;12.82;9.07;;;21.50;56.40;;;;;;5035599;28;20026;-59
2021/08/25 04:35:50;;;;;;;15.63;10.32;;;21.60;56.60;;;;;;5049059;28;20025;-59
2021/08/25 04:38:16;;;;;;;18.15;10.90;;;21.60;56.50;;;;;;5059504;28;20469;-58
2021/08/25 04:40:42;;;;;;;19.17;11.18;;;21.60;56.40;;;;;;5054619;28;20028;-59
2021/08/25 04:43:07;;;;;;;18.10;10.38;;;21.60;56.20;;;;;;5039114;28;20425;-60
2021/08/25 04:45:33;;;;;;;16.50;11.38;;;21.60;56.20;;;;;;5039217;28;20053;-59
2021/08/25 04:47:59;;;;;;;17.27;12.15;;;21.60;56.10;;;;;;5038862;28;20033;-60
2021/08/25 04:50:24;;;;;;;20.42;11.77;;;21.60;56.10;;;;;;5039243;28;20056;-60
2021/08/25 04:52:50;;;;;;;17.58;12.23;;;21.60;56.00;;;;;;5038936;28;20033;-60
2021/08/25 04:55:16;;;;;;;20.15;11.93;;;21.60;56.10;;;;;;5038517;28;20032;-60
2021/08/25 04:57:42;;;;;;;20.17;11.60;;;21.60;56.10;;;;;;5038704;28;20033;-60
2021/08/25 05:00:08;;;;;;;19.00;12.35;;;21.60;56.20;;;;;;5044619;28;20024;-60
2021/08/25 05:02:35;;;;;;;15.45;11.02;;;21.60;56.30;;;;;;5039862;28;20585;-60
2021/08/25 05:05:01;;;;;;;17.88;12.00;;;21.60;56.10;;;;;;5035126;28;20105;-58
2021/08/25 05:07:26;;;;;;;18.52;11.43;;;21.70;56.30;;;;;;5032638;28;20057;-59
2021/08/25 05:09:52;;;;;;;16.83;11.77;;;21.70;56.10;;;;;;5037697;28;20040;-59
2021/08/25 05:12:18;;;;;;;17.17;11.60;;;21.70;56.00;;;;;;5033662;28;20029;-58
2021/08/25 05:14:44;;;;;;;17.13;12.40;;;21.80;56.30;;;;;;5022675;28;20518;-58
2021/08/25 05:17:10;;;;;;;19.92;12.48;;;21.80;56.20;;;;;;5036068;28;20057;-59
2021/08/25 05:19:35;;;;;;;18.38;12.27;;;21.90;56.30;;;;;;5025485;28;20160;-59
2021/08/25 05:22:01;;;;;;;18.67;11.73;;;21.90;56.70;;;;;;5034605;28;20385;-59
2021/08/25 05:24:27;;;;;;;15.90;11.82;;;22.00;56.80;;;;;;5033566;28;20484;-63
2021/08/25 05:26:52;;;;;;;17.38;11.93;;;21.90;56.80;;;;;;5030500;28;20417;-58
2021/08/25 05:29:18;;;;;;;18.10;12.18;;;22.00;57.10;;;;;;5031148;28;21282;-59
2021/08/25 05:31:44;;;;;;;16.77;11.55;;;22.00;57.30;;;;;;5027338;28;20168;-60
2021/08/25 05:34:12;;;;;;;18.73;12.68;;;22.00;57.60;;;;;;5028432;28;20065;-60
2021/08/25 05:36:38;;;;;;;18.50;12.10;;;22.10;57.50;;;;;;5031486;28;20095;-59
2021/08/25 05:39:04;;;;;;;21.55;12.10;;;22.10;57.70;;;;;;5042507;28;20044;-58
2021/08/25 05:41:30;;;;;;;17.85;12.82;;;22.20;57.90;;;;;;5032310;28;20727;-58
2021/08/25 05:43:55;;;;;;;18.27;12.73;;;22.30;58.10;;;;;;5026728;28;20034;-58
2021/08/25 05:46:21;;;;;;;21.98;13.50;;;22.30;57.80;;;;;;5030633;28;20116;-58
2021/08/25 05:48:47;;;;;;;19.45;12.52;;;22.40;57.80;;;;;;5030501;28;20025;-57
2021/08/25 05:51:12;;;;;;;19.55;11.93;;;22.40;57.90;;;;;;5031517;28;20373;-59
2021/08/25 05:53:38;;;;;;;17.40;12.05;;;22.50;58.00;;;;;;5023078;28;20030;-59
2021/08/25 05:56:04;;;;;;;19.95;12.82;;;22.50;57.80;;;;;;5032237;28;20029;-58
2021/08/25 05:58:30;;;;;;;20.13;12.90;;;22.60;57.70;;;;;;5027592;28;20021;-59
2021/08/25 06:00:55;;;;;;;14.98;11.68;;;22.70;57.70;;;;;;5027321;28;20030;-56
2021/08/25 06:03:21;;;;;;;18.25;12.30;;;22.70;57.70;;;;;;5020711;28;20458;-57
2021/08/25 06:05:47;;;;;;;17.15;11.10;;;22.70;58.00;;;;;;5022684;28;20087;-58
2021/08/25 06:08:12;;;;;;;15.77;12.07;;;22.70;58.10;;;;;;5020659;28;20064;-58
2021/08/25 06:10:38;;;;;;;18.55;11.48;;;22.80;58.40;;;;;;5026457;28;21605;-57
2021/08/25 06:13:04;;;;;;;15.27;11.05;;;22.80;58.70;;;;;;5024172;28;20025;-57
2021/08/25 06:15:29;;;;;;;14.85;10.90;;;22.80;58.90;;;;;;5026064;28;20040;-58
2021/08/25 06:17:55;;;;;;;16.48;10.43;;;22.90;59.20;;;;;;5025664;28;20804;-57
2021/08/25 06:20:20;;;;;;;14.10;10.63;;;22.90;59.50;;;;;;5022952;28;20029;-58
2021/08/25 06:22:46;;;;;;;14.85;10.80;;;22.90;59.60;;;;;;5031048;28;20053;-59
2021/08/25 06:25:12;;;;;;;14.18;10.05;;;23.00;59.80;;;;;;5030993;28;20021;-57
2021/08/25 06:27:37;;;;;;;16.88;12.27;;;23.00;60.60;;;;;;5027186;28;20083;-56
2021/08/25 06:30:04;;;;;;;16.45;11.25;;;23.00;60.10;;;;;;5031183;28;20060;-59
2021/08/25 06:32:30;;;;;;;15.52;10.57;;;23.00;60.20;;;;;;5030271;28;20063;-58
2021/08/25 06:34:56;;;;;;;16.58;11.30;;;23.00;60.50;;;;;;5028269;28;20025;-58
2021/08/25 06:37:22;;;;;;;15.07;10.95;;;23.00;60.60;;;;;;5028413;28;20029;-58
2021/08/25 06:39:48;;;;;;;13.63;9.80;;;23.10;60.80;;;;;;5022846;28;20799;-57
2021/08/25 06:42:13;;;;;;;12.38;9.13;;;23.10;61.10;;;;;;5019985;28;20053;-58
2021/08/25 06:44:39;;;;;;;14.90;10.38;;;23.00;61.20;;;;;;5013673;28;20025;-59
2021/08/25 06:47:05;;;;;;;13.80;9.50;;;23.00;61.40;;;;;;5024623;28;20373;-57
2021/08/25 06:49:30;;;;;;;14.05;9.35;;;23.00;61.60;;;;;;5017908;28;20417;-58
2021/08/25 06:51:56;;;;;;;15.50;10.25;;;23.00;62.30;;;;;;5018133;28;20128;-59
2021/08/25 06:54:22;;;;;;;12.10;8.73;;;23.10;61.90;;;;;;5013308;28;20129;-59
2021/08/25 06:56:47;;;;;;;15.80;9.98;;;23.10;62.10;;;;;;5016392;28;20045;-59
2021/08/25 06:59:13;;;;;;;13.60;9.77;;;23.10;62.30;;;;;;5019571;28;20038;-60
2021/08/25 07:01:39;;;;;;;13.30;9.70;;;23.10;62.50;;;;;;5016047;28;20029;-59
2021/08/25 07:04:05;;;;;;;12.63;9.35;;;23.10;62.70;;;;;;5021226;28;20459;-59
2021/08/25 07:06:30;;;;;;;12.77;8.98;;;23.00;62.80;;;;;;5017813;28;20039;-59
2021/08/25 07:08:56;;;;;;;12.70;8.35;;;23.10;63.20;;;;;;5017531;28;20033;-58
2021/08/25 07:11:22;;;;;;;11.82;8.55;;;23.10;63.30;;;;;;5014425;28;20048;-63
2021/08/25 07:13:47;;;;;;;12.45;8.70;;;23.10;63.50;;;;;;5015074;28;20041;-63
2021/08/25 07:16:14;;;;;;;12.98;8.55;;;23.10;63.70;;;;;;5011496;28;20057;-63
2021/08/25 07:18:43;;;;;;;11.27;7.88;;;23.00;63.80;;;;;;5016688;28;20127;-63
2021/08/25 07:21:12;;;;;;;10.75;7.68;;;23.10;63.50;;;;;;5017847;28;20827;-63
2021/08/25 07:23:38;;;;;;;11.63;7.63;;;23.00;63.30;;;;;;5013869;28;20029;-63
2021/08/25 07:26:03;;;;;;;10.65;7.57;;;23.00;63.10;;;;;;5016149;28;20544;-63
2021/08/25 07:28:29;;;;;;;12.45;7.57;;;23.00;63.30;;;;;;5017044;28;21085;-62
2021/08/25 07:30:55;;;;;;;9.45;7.15;;;23.00;63.30;;;;;;5014223;28;20472;-62
2021/08/25 07:33:22;;;;;;;10.75;7.85;;;23.00;63.40;;;;;;5018462;28;20044;-62
2021/08/25 07:35:48;;;;;;;10.45;7.32;;;23.00;63.40;;;;;;5019796;28;20043;-62
2021/08/25 07:38:15;;;;;;;10.75;7.47;;;23.00;63.30;;;;;;5017958;28;20037;-62
2021/08/25 07:40:42;;;;;;;9.02;6.80;;;23.00;63.10;;;;;;5014393;28;20651;-62
2021/08/25 07:43:10;;;;;;;9.15;7.05;;;22.90;62.90;;;;;;5014853;28;20029;-62
2021/08/25 07:45:37;;;;;;;9.20;7.43;;;22.90;63.40;;;;;;4998892;28;20116;-62
2021/08/25 07:48:03;;;;;;;12.85;8.35;;;22.90;63.70;;;;;;5016157;28;20079;-62
2021/08/25 07:50:29;;;;;;;9.75;7.78;;;22.90;64.10;;;;;;5013656;28;20026;-61
2021/08/25 07:52:55;;;;;;;10.88;7.80;;;22.90;64.60;;;;;;5012537;28;20449;-62
2021/08/25 07:55:20;;;;;;;10.18;8.18;;;22.90;65.00;;;;;;5012181;28;20041;-62
2021/08/25 07:57:46;;;;;;;10.02;8.20;;;22.90;66.00;;;;;;5012614;28;20103;-62
2021/08/25 08:00:12;;;;;;;13.20;10.13;;;22.80;65.70;;;;;;5012244;28;20066;-61
2021/08/25 08:02:38;;;;;;;12.60;9.80;;;22.80;66.00;;;;;;5013386;28;20029;-60
2021/08/25 08:05:07;;;;;;;10.73;8.40;;;22.80;66.00;;;;;;5014160;28;20033;-61
2021/08/25 08:07:32;;;;;;;11.48;9.15;;;22.80;66.10;;;;;;5009206;28;20037;-62
2021/08/25 08:09:58;;;;;;;12.20;8.20;;;22.80;66.70;;;;;;5019322;28;20118;-62
2021/08/25 08:12:24;;;;;;;14.38;8.73;;;22.80;65.90;;;;;;5012626;28;20064;-62
2021/08/25 08:14:49;;;;;;;13.80;8.35;;;22.70;65.60;;;;;;5011823;28;20053;-62
2021/08/25 08:17:16;;;;;;;11.77;8.38;;;22.70;65.50;;;;;;5008181;28;20550;-62
2021/08/25 08:19:42;;;;;;;11.40;8.52;;;22.70;65.60;;;;;;5013714;28;20025;-62
2021/08/25 08:22:08;;;;;;;11.60;8.48;;;22.70;65.70;;;;;;5013611;28;20064;-62
2021/08/25 08:24:33;;;;;;;10.48;7.47;;;22.70;65.70;;;;;;5015282;28;20091;-61
2021/08/25 08:26:59;;;;;;;12.05;8.05;;;22.80;65.60;;;;;;5018611;28;20842;-61
2021/08/25 08:29:27;;;;;;;8.25;7.30;;;22.80;65.50;;;;;;5016341;28;20026;-62
2021/08/25 08:31:52;;;;;;;11.15;8.20;;;22.90;65.50;;;;;;5014885;28;20490;-62
2021/08/25 08:34:18;;;;;;;10.65;7.50;;;22.90;65.40;;;;;;5015801;28;20104;-62
2021/08/25 08:36:44;;;;;;;10.93;8.30;;;22.90;66.00;;;;;;5012682;28;20028;-61
2021/08/25 08:39:10;;;;;;;10.48;8.52;;;22.90;65.50;;;;;;5017618;28;20397;-60
2021/08/25 08:41:38;;;;;;;10.65;8.25;;;22.90;65.40;;;;;;5011790;28;20036;-62
2021/08/25 08:44:04;;;;;;;12.30;9.27;;;22.90;65.50;;;;;;5009299;28;20056;-62
2021/08/25 08:46:30;;;;;;;11.68;9.73;;;22.90;65.60;;;;;;5010244;28;20557;-62
2021/08/25 08:48:55;;;;;;;12.65;9.63;;;22.90;65.80;;;;;;4998541;28;20025;-62
2021/08/25 08:51:24;;;;;;;11.93;8.88;;;22.90;65.70;;;;;;5011511;28;21040;-61
2021/08/25 08:53:52;;;;;;;11.52;8.98;;;23.00;65.90;;;;;;5011326;28;20037;-62
2021/08/25 08:56:18;;;;;;;11.32;9.00;;;22.90;66.00;;;;;;5015186;28;20084;-62
2021/08/25 08:58:45;;;;;;;11.85;8.85;;;22.90;66.20;;;;;;5015278;28;20151;-62
2021/08/25 09:01:11;;;;;;;12.50;8.77;;;22.90;66.40;;;;;;5014914;28;20060;-62
2021/08/25 09:03:39;;;;;;;14.43;9.20;;;22.90;66.70;;;;;;5020146;28;20040;-61
2021/08/25 09:06:06;;;;;;;15.00;8.98;;;22.90;66.80;;;;;;5016971;28;20029;-62
2021/08/25 09:08:34;;;;;;;10.63;8.18;;;22.90;66.90;;;;;;5013125;28;20060;-62
2021/08/25 09:11:12;;;;;;;11.70;8.98;;;22.90;67.10;;;;;;5014423;28;20363;-62
2021/08/25 09:13:41;;;;;;;12.70;9.35;;;22.90;67.10;;;;;;5018746;28;20092;-62
2021/08/25 09:16:07;;;;;;;12.40;9.70;;;22.90;67.20;;;;;;5013151;28;21806;-62
2021/08/25 09:18:33;;;;;;;11.82;9.32;;;22.90;67.20;;;;;;5013000;28;20037;-60
2021/08/25 09:21:00;;;;;;;13.25;9.23;;;22.90;67.20;;;;;;5017289;28;20033;-62
2021/08/25 09:23:28;;;;;;;11.30;8.63;;;22.90;67.10;;;;;;5017964;28;20557;-62
2021/08/25 09:26:07;;;;;;;12.95;9.98;;;22.90;67.00;;;;;;5022339;28;20063;-61
2021/08/25 09:28:35;;;;;;;11.15;9.10;;;23.00;66.90;;;;;;5018836;28;20049;-62
2021/08/25 09:31:12;;;;;;;10.90;8.88;;;23.00;67.00;;;;;;5014204;28;20103;-62
2021/08/25 09:33:43;;;;;;;11.90;9.13;;;23.00;67.10;;;;;;5009055;28;20497;-61
2021/08/25 09:36:11;;;;;;;13.70;8.73;;;23.00;67.00;;;;;;5017767;28;20116;-62
2021/08/25 09:38:38;;;;;;;11.52;8.32;;;22.90;66.90;;;;;;5018235;28;20692;-60
2021/08/25 09:41:11;;;;;;;13.27;9.23;;;22.90;66.90;;;;;;5018062;28;20090;-61
2021/08/25 09:43:45;;;;;;;12.43;9.25;;;22.90;66.90;;;;;;5019446;28;20120;-62
2021/08/25 09:46:22;;;;;;;15.10;10.80;;;22.90;67.10;;;;;;5020259;28;20576;-61
2021/08/25 09:48:49;;;;;;;13.90;10.20;;;22.90;67.20;;;;;;5020253;28;20115;-62
2021/08/25 09:51:20;;;;;;;12.05;9.63;;;22.90;67.20;;;;;;5017454;28;20112;-62
2021/08/25 09:53:51;;;;;;;14.63;10.40;;;22.90;67.20;;;;;;5020877;28;20159;-62
2021/08/25 09:56:22;;;;;;;14.15;11.43;;;22.90;67.30;;;;;;5017365;28;20766;-62
2021/08/25 09:58:48;;;;;;;16.83;10.60;;;23.00;67.10;;;;;;5012475;28;20029;-62
2021/08/25 10:01:16;;;;;;;12.88;10.80;;;23.00;67.10;;;;;;5020705;28;20088;-60
2021/08/25 10:03:42;;;;;;;14.00;10.48;;;23.10;67.10;;;;;;5021819;28;20021;-60
2021/08/25 10:06:08;;;;;;;13.07;10.43;;;23.10;67.10;;;;;;5018046;28;20064;-61
2021/08/25 10:08:34;;;;;;;16.08;10.50;;;23.10;67.20;;;;;;5019688;28;20033;-62
2021/08/25 10:11:06;;;;;;;15.65;10.35;;;23.20;67.00;;;;;;5022619;28;20037;-62
2021/08/25 10:13:32;;;;;;;15.63;10.48;;;23.20;67.10;;;;;;5015904;28;20026;-61
2021/08/25 10:15:57;;;;;;;14.32;10.60;;;23.30;66.90;;;;;;5018319;28;20481;-61
2021/08/25 10:18:30;;;;;;;14.60;10.90;;;23.30;66.80;;;;;;5019843;28;20096;-62
2021/08/25 10:20:59;;;;;;;14.02;10.20;;;23.40;66.50;;;;;;5015844;28;20040;-62
2021/08/25 10:23:55;;;;;;;15.15;10.50;;;23.40;66.30;;;;;;5018428;28;20411;-62
2021/08/25 10:26:21;;;;;;;15.20;10.40;;;23.50;66.00;;;;;;5016620;28;20140;-61
2021/08/25 10:28:59;;;;;;;15.32;10.55;;;23.50;65.70;;;;;;5013571;28;20408;-61
2021/08/25 10:31:26;;;;;;;12.60;9.20;;;23.50;65.50;;;;;;5012291;28;20064;-62
2021/08/25 10:34:11;;;;;;;14.32;11.13;;;23.50;65.30;;;;;;5013212;28;20033;-62
2021/08/25 10:36:37;;;;;;;15.23;10.57;;;23.60;65.00;;;;;;5014289;28;20048;-61
2021/08/25 10:39:03;;;;;;;15.50;10.45;;;23.60;64.70;;;;;;5014799;28;20041;-61
2021/08/25 10:41:28;;;;;;;13.35;9.82;;;23.70;64.60;;;;;;5012669;28;20033;-62
2021/08/25 10:43:56;;;;;;;13.05;9.55;;;23.70;64.60;;;;;;5013277;28;20040;-62
2021/08/25 10:46:21;;;;;;;14.93;9.75;;;23.80;64.30;;;;;;5015596;28;20061;-61
2021/08/25 10:48:55;;;;;;;14.52;9.43;;;23.90;64.20;;;;;;5018789;28;20734;-62
2021/08/25 10:51:37;;;;;;;12.18;10.02;;;23.90;63.90;;;;;;5017295;28;20211;-62
2021/08/25 10:54:08;;;;;;;14.70;8.90;;;24.00;63.40;;;;;;5014554;28;20108;-62
2021/08/25 10:56:37;;;;;;;12.68;8.70;;;24.00;62.80;;;;;;5013369;28;20064;-62
2021/08/25 10:59:08;;;;;;;12.98;8.65;;;24.10;62.60;;;;;;5021370;28;20030;-62
2021/08/25 11:01:39;;;;;;;11.50;8.25;;;24.10;62.20;;;;;;5010323;28;20029;-62
2021/08/25 11:04:14;;;;;;;11.55;8.63;;;24.20;62.10;;;;;;5018525;28;20025;-63
2021/08/25 11:06:45;;;;;;;11.60;8.23;;;24.20;62.00;;;;;;5023672;28;20032;-62
2021/08/25 11:09:27;;;;;;;11.05;8.65;;;24.20;62.00;;;;;;5021838;28;20029;-62
2021/08/25 11:12:00;;;;;;;12.27;8.23;;;24.30;61.70;;;;;;5025144;28;20079;-63
2021/08/25 11:14:31;;;;;;;10.07;7.97;;;24.30;61.70;;;;;;5022017;28;20562;-62
2021/08/25 11:17:03;;;;;;;12.85;8.35;;;24.30;61.40;;;;;;5021529;28;20495;-62
2021/08/25 11:19:51;;;;;;;11.60;8.40;;;24.40;61.30;;;;;;5015095;28;20116;-63
2021/08/25 11:22:32;;;;;;;14.23;9.27;;;24.40;61.10;;;;;;5011603;28;20034;-62
2021/08/25 11:25:13;;;;;;;11.25;8.98;;;24.50;61.20;;;;;;5019627;28;20033;-61
2021/08/25 11:27:47;;;;;;;10.75;7.43;;;24.50;61.30;;;;;;5022792;28;20048;-62
2021/08/25 11:30:15;;;;;;;12.35;8.48;;;24.50;61.30;;;;;;5024267;28;20029;-62
2021/08/25 11:32:47;;;;;;;11.20;8.50;;;24.60;61.90;;;;;;5019026;28;20084;-62
2021/08/25 11:35:20;;;;;;;13.88;8.00;;;24.60;62.00;;;;;;5018798;28;20414;-61
2021/08/25 11:37:45;;;;;;;11.60;7.68;;;24.60;61.30;;;;;;5020355;28;20124;-61
2021/08/25 11:40:12;;;;;;;13.07;8.70;;;24.60;60.90;;;;;;5021703;28;20116;-62
2021/08/25 11:42:38;;;;;;;12.13;8.55;;;24.70;60.70;;;;;;5022965;28;20392;-61
2021/08/25 11:45:16;;;;;;;13.10;9.32;;;24.70;60.50;;;;;;5010306;28;20033;-61
2021/08/25 11:47:52;;;;;;;10.23;8.27;;;24.70;60.50;;;;;;5011735;28;20060;-61
2021/08/25 11:50:20;;;;;;;10.15;7.68;;;24.80;60.40;;;;;;5007796;28;20089;-61
2021/08/25 11:52:47;;;;;;;11.30;8.77;;;24.80;60.30;;;;;;5012323;28;20397;-61
2021/08/25 11:55:13;;;;;;;11.23;8.20;;;24.70;59.90;;;;;;5010318;28;20045;-60
2021/08/25 11:57:41;;;;;;;10.90;8.23;;;24.80;59.70;;;;;;5012783;28;20044;-61
2021/08/25 12:00:07;;;;;;;13.82;8.52;;;24.70;59.60;;;;;;5013353;28;20116;-59
2021/08/25 12:02:59;;;;;;;14.52;8.50;;;24.70;59.60;;;;;;5015899;28;20113;-59
2021/08/25 12:05:35;;;;;;;12.07;9.07;;;24.70;59.90;;;;;;5010983;28;20021;-61
2021/08/25 12:08:08;;;;;;;12.80;8.73;;;24.70;60.00;;;;;;5007157;28;20094;-61
2021/08/25 12:10:38;;;;;;;12.15;8.75;;;24.70;60.00;;;;;;5009877;28;20029;-61
2021/08/25 12:13:04;;;;;;;12.50;8.88;;;24.70;60.30;;;;;;5008882;28;20040;-61
2021/08/25 12:15:52;;;;;;;12.60;8.65;;;24.70;60.40;;;;;;5013768;28;20135;-61
2021/08/25 12:18:20;;;;;;;13.95;8.85;;;24.70;60.40;;;;;;5008120;28;20041;-61
2021/08/25 12:20:52;;;;;;;11.93;8.57;;;24.70;60.40;;;;;;5012394;28;20072;-61
2021/08/25 12:23:27;;;;;;;11.93;8.77;;;24.70;60.40;;;;;;5015161;28;20034;-61
2021/08/25 12:25:55;;;;;;;12.40;8.63;;;24.70;60.40;;;;;;5004212;28;20032;-61
2021/08/25 12:28:38;;;;;;;10.07;8.90;;;24.70;60.70;;;;;;5010577;28;23599;-61
2021/08/25 12:31:13;;;;;;;11.60;8.18;;;24.80;60.80;;;;;;5010680;28;20054;-61
2021/08/25 12:33:39;;;;;;;13.30;9.13;;;24.80;60.90;;;;;;5008375;28;20477;-61
2021/08/25 12:36:25;;;;;;;11.00;8.40;;;24.80;61.20;;;;;;5013056;28;20029;-61
2021/08/25 12:39:10;;;;;;;12.45;8.93;;;24.80;61.30;;;;;;5014702;28;20029;-61